createdAt,value
2023-06-17T00:00:34.010Z,17.95
2023-06-17T00:01:36.190Z,18.38
2023-06-17T00:02:38.360Z,21.02
2023-06-17T00:03:40.657Z,19.63
2023-06-17T00:04:42.912Z,20.70
2023-06-17T00:05:45.084Z,19.08
2023-06-17T00:06:47.254Z,15.05
2023-06-17T00:07:49.429Z,15.68
2023-06-17T00:08:52.934Z,16.60
2023-06-17T00:09:55.135Z,15.52
2023-06-17T00:10:57.330Z,20.60
2023-06-17T00:11:59.528Z,16.08
2023-06-17T00:13:01.694Z,20.90
2023-06-17T00:14:03.991Z,17.23
2023-06-17T00:15:07.286Z,16.02
2023-06-17T00:16:10.235Z,23.42
2023-06-17T00:17:13.701Z,18.42
2023-06-17T00:18:20.553Z,20.23
2023-06-17T00:19:23.832Z,22.35
2023-06-17T00:20:26.024Z,25.48
2023-06-17T00:21:28.213Z,22.65
2023-06-17T00:22:30.982Z,20.75
2023-06-17T00:23:33.166Z,17.80
2023-06-17T00:24:36.750Z,18.25
2023-06-17T00:25:39.197Z,19.45
2023-06-17T00:26:41.873Z,17.13
2023-06-17T00:27:44.789Z,19.83
2023-06-17T00:28:46.974Z,19.20
2023-06-17T00:29:49.242Z,21.70
2023-06-17T00:30:51.633Z,18.13
2023-06-17T00:31:53.869Z,18.92
2023-06-17T00:32:56.136Z,22.58
2023-06-17T00:33:58.578Z,19.42
2023-06-17T00:35:00.846Z,20.27
2023-06-17T00:36:04.261Z,18.17
2023-06-17T00:37:06.677Z,20.02
2023-06-17T00:38:08.912Z,16.95
2023-06-17T00:39:11.409Z,28.83
2023-06-17T00:40:14.409Z,17.80
2023-06-17T00:41:17.027Z,16.63
2023-06-17T00:42:19.398Z,17.60
2023-06-17T00:43:21.857Z,18.98
2023-06-17T00:44:24.201Z,20.20
2023-06-17T00:45:26.388Z,20.40
2023-06-17T00:46:39.558Z,19.17
2023-06-17T00:47:42.617Z,23.73
2023-06-17T00:48:44.839Z,24.52
2023-06-17T00:49:48.184Z,25.10
2023-06-17T00:50:51.144Z,22.75
2023-06-17T00:52:13.232Z,21.63
2023-06-17T00:53:16.708Z,21.60
2023-06-17T00:54:19.051Z,17.42
2023-06-17T00:55:22.405Z,22.55
2023-06-17T00:56:26.359Z,21.50
2023-06-17T00:57:30.146Z,18.92
2023-06-17T00:58:33.170Z,23.48
2023-06-17T00:59:38.485Z,17.75
2023-06-17T01:00:40.879Z,24.02
2023-06-17T01:01:44.857Z,19.63
2023-06-17T01:02:47.614Z,21.38
2023-06-17T01:03:51.162Z,21.50
2023-06-17T01:04:54.992Z,25.13
2023-06-17T01:06:00.534Z,18.27
2023-06-17T01:07:31.324Z,26.67
2023-06-17T01:08:41.899Z,18.13
2023-06-17T01:09:51.060Z,26.02
2023-06-17T01:11:06.068Z,24.50
2023-06-17T01:12:09.801Z,24.73
2023-06-17T01:13:16.920Z,21.60
2023-06-17T01:14:22.284Z,23.80
2023-06-17T01:15:25.054Z,24.13
2023-06-17T01:16:28.259Z,19.20
2023-06-17T01:17:31.255Z,22.85
2023-06-17T01:18:34.237Z,19.55
2023-06-17T01:19:39.206Z,26.02
2023-06-17T01:20:41.748Z,18.63
2023-06-17T01:21:44.501Z,21.63
2023-06-17T01:22:49.749Z,20.00
2023-06-17T01:23:54.456Z,21.33
2023-06-17T01:24:57.449Z,20.05
2023-06-17T01:26:02.311Z,28.00
2023-06-17T01:27:05.129Z,20.95
2023-06-17T01:28:17.822Z,24.30
2023-06-17T01:29:20.899Z,21.23
2023-06-17T01:30:23.331Z,22.05
2023-06-17T01:31:28.016Z,19.48
2023-06-17T01:32:30.311Z,19.58
2023-06-17T01:33:33.689Z,20.23
2023-06-17T01:35:00.658Z,20.42
2023-06-17T01:36:12.114Z,23.90
2023-06-17T01:37:20.005Z,22.98
2023-06-17T01:38:29.384Z,21.08
2023-06-17T01:39:33.724Z,28.88
2023-06-17T01:40:36.607Z,17.58
2023-06-17T01:41:41.054Z,18.60
2023-06-17T01:42:47.823Z,19.20
2023-06-17T01:43:50.977Z,19.63
2023-06-17T01:44:54.416Z,19.50
2023-06-17T01:45:57.396Z,24.65
2023-06-17T01:46:59.905Z,21.50
2023-06-17T01:48:02.686Z,21.85
2023-06-17T01:49:05.061Z,20.58
2023-06-17T01:50:07.946Z,25.23
2023-06-17T01:51:10.483Z,19.08
2023-06-17T01:52:12.943Z,25.55
2023-06-17T01:53:15.176Z,22.17
2023-06-17T01:54:17.432Z,24.35
2023-06-17T01:55:20.101Z,23.63
2023-06-17T01:56:22.773Z,21.58
2023-06-17T01:57:26.216Z,22.13
2023-06-17T01:58:28.863Z,21.30
2023-06-17T01:59:31.634Z,21.65
2023-06-17T02:00:33.931Z,28.95
2023-06-17T02:01:36.228Z,25.30
2023-06-17T02:02:38.498Z,24.88
2023-06-17T02:03:43.352Z,19.27
2023-06-17T02:04:47.558Z,20.45
2023-06-17T02:05:50.107Z,24.63
2023-06-17T02:06:52.876Z,36.97
2023-06-17T02:08:01.053Z,23.55
2023-06-17T02:09:08.139Z,24.40
2023-06-17T02:10:10.817Z,21.95
2023-06-17T02:11:13.119Z,20.83
2023-06-17T02:12:15.266Z,23.30
2023-06-17T02:13:17.487Z,22.45
2023-06-17T02:14:19.992Z,24.70
2023-06-17T02:15:22.319Z,26.80
2023-06-17T02:16:25.034Z,22.23
2023-06-17T02:17:28.904Z,22.63
2023-06-17T02:18:33.498Z,21.23
2023-06-17T02:19:48.961Z,21.23
2023-06-17T02:20:51.524Z,24.20
2023-06-17T02:21:53.859Z,28.58
2023-06-17T02:22:56.037Z,17.95
2023-06-17T02:23:58.282Z,23.88
2023-06-17T02:25:00.471Z,23.20
2023-06-17T02:26:02.803Z,19.65
2023-06-17T02:27:06.538Z,23.80
2023-06-17T02:28:09.014Z,24.38
2023-06-17T02:29:11.893Z,18.83
2023-06-17T02:30:14.525Z,20.88
2023-06-17T02:31:16.906Z,27.50
2023-06-17T02:32:19.185Z,16.45
2023-06-17T02:33:22.313Z,17.88
2023-06-17T02:34:24.607Z,28.70
2023-06-17T02:35:26.788Z,18.65
2023-06-17T02:36:29.124Z,16.73
2023-06-17T02:37:31.575Z,24.35
2023-06-17T02:38:33.996Z,24.08
2023-06-17T02:39:36.472Z,23.45
2023-06-17T02:40:38.669Z,16.67
2023-06-17T02:41:42.584Z,19.27
2023-06-17T02:42:44.861Z,22.67
2023-06-17T02:43:47.069Z,19.05
2023-06-17T02:44:49.373Z,21.33
2023-06-17T02:45:51.588Z,21.02
2023-06-17T02:46:53.857Z,21.45
2023-06-17T02:47:57.154Z,16.88
2023-06-17T02:48:59.514Z,24.70
2023-06-17T02:50:02.355Z,25.98
2023-06-17T02:51:06.418Z,23.48
2023-06-17T02:52:08.757Z,25.40
2023-06-17T02:53:11.703Z,20.33
2023-06-17T02:54:14.436Z,22.58
2023-06-17T02:55:16.775Z,22.90
2023-06-17T02:56:18.977Z,23.13
2023-06-17T02:57:21.313Z,23.73
2023-06-17T02:58:26.875Z,27.10
2023-06-17T02:59:34.629Z,18.05
2023-06-17T03:00:37.464Z,22.05
2023-06-17T03:01:43.326Z,21.75
2023-06-17T03:02:45.824Z,21.73
2023-06-17T03:03:48.092Z,22.27
2023-06-17T03:04:55.349Z,22.92
2023-06-17T03:06:02.733Z,25.80
2023-06-17T03:07:07.070Z,27.98
2023-06-17T03:08:09.584Z,32.65
2023-06-17T03:09:12.257Z,23.75
2023-06-17T03:10:16.605Z,25.95
2023-06-17T03:11:22.969Z,21.63
2023-06-17T03:12:25.663Z,23.95
2023-06-17T03:13:29.382Z,23.95
2023-06-17T03:14:31.679Z,17.48
2023-06-17T03:15:35.720Z,21.27
2023-06-17T03:16:39.605Z,26.95
2023-06-17T03:17:42.643Z,19.60
2023-06-17T03:18:44.925Z,27.05
2023-06-17T03:19:47.347Z,24.70
2023-06-17T03:20:51.180Z,22.00
2023-06-17T03:21:54.128Z,21.13
2023-06-17T03:22:58.771Z,21.23
2023-06-17T03:24:02.623Z,27.23
2023-06-17T03:25:08.569Z,19.38
2023-06-17T03:26:10.764Z,25.40
2023-06-17T03:27:13.401Z,16.98
2023-06-17T03:28:15.744Z,24.08
2023-06-17T03:29:18.141Z,26.17
2023-06-17T03:30:24.196Z,20.98
2023-06-17T03:31:26.519Z,20.48
2023-06-17T03:32:29.952Z,21.83
2023-06-17T03:33:32.219Z,25.75
2023-06-17T03:34:34.639Z,21.92
2023-06-17T03:35:42.981Z,21.33
2023-06-17T03:36:48.714Z,22.15
2023-06-17T03:37:51.536Z,23.23
2023-06-17T03:38:53.894Z,19.85
2023-06-17T03:39:56.475Z,21.33
2023-06-17T03:40:58.700Z,25.15
2023-06-17T03:42:01.582Z,24.55
2023-06-17T03:43:03.871Z,17.83
2023-06-17T03:44:06.214Z,22.42
2023-06-17T03:45:08.982Z,19.58
2023-06-17T03:46:11.441Z,23.92
2023-06-17T03:47:13.760Z,21.45
2023-06-17T03:48:16.692Z,19.00
2023-06-17T03:49:18.905Z,20.95
2023-06-17T03:50:21.386Z,21.08
2023-06-17T03:51:23.936Z,17.48
2023-06-17T03:52:26.704Z,17.98
2023-06-17T03:53:30.214Z,24.73
2023-06-17T03:54:33.901Z,18.15
2023-06-17T03:55:37.459Z,18.77
2023-06-17T03:56:40.627Z,24.42
2023-06-17T03:57:44.170Z,18.42
2023-06-17T03:58:46.840Z,22.83
2023-06-17T03:59:49.282Z,14.98
2023-06-17T04:00:52.743Z,18.30
2023-06-17T04:01:55.020Z,16.50
2023-06-17T04:02:57.696Z,25.15
2023-06-17T04:04:04.876Z,21.10
2023-06-17T04:05:07.290Z,18.33
2023-06-17T04:06:09.468Z,22.38
2023-06-17T04:07:12.030Z,21.10
2023-06-17T04:08:14.378Z,17.27
2023-06-17T04:09:16.593Z,19.75
2023-06-17T04:10:18.762Z,17.85
2023-06-17T04:11:20.936Z,22.58
2023-06-17T04:12:23.292Z,16.23
2023-06-17T04:13:25.667Z,20.65
2023-06-17T04:14:28.635Z,23.58
2023-06-17T04:15:30.842Z,17.10
2023-06-17T04:16:36.829Z,19.48
2023-06-17T04:17:39.220Z,20.08
2023-06-17T04:18:41.581Z,17.52
2023-06-17T04:19:43.760Z,15.68
2023-06-17T04:20:46.116Z,21.05
2023-06-17T04:21:48.314Z,18.23
2023-06-17T04:22:50.647Z,19.85
2023-06-17T04:23:52.900Z,18.65
2023-06-17T04:24:57.135Z,17.67
2023-06-17T04:26:01.728Z,19.85
2023-06-17T04:27:07.035Z,17.27
2023-06-17T04:28:09.948Z,20.02
2023-06-17T04:29:13.516Z,16.10
2023-06-17T04:30:16.355Z,17.00
2023-06-17T04:31:19.404Z,17.23
2023-06-17T04:32:22.606Z,17.55
2023-06-17T04:33:25.839Z,16.00
2023-06-17T04:34:28.221Z,18.98
2023-06-17T04:35:31.319Z,23.48
2023-06-17T04:36:35.585Z,17.20
2023-06-17T04:37:38.306Z,16.98
2023-06-17T04:38:41.023Z,18.95
2023-06-17T04:39:43.696Z,17.77
2023-06-17T04:40:45.952Z,16.73
2023-06-17T04:41:48.548Z,18.45
2023-06-17T04:42:51.499Z,17.75
2023-06-17T04:43:54.737Z,17.48
2023-06-17T04:44:57.500Z,19.02
2023-06-17T04:46:02.145Z,16.50
2023-06-17T04:47:09.265Z,20.13
2023-06-17T04:48:12.097Z,22.98
2023-06-17T04:49:15.158Z,17.45
2023-06-17T04:50:17.955Z,16.08
2023-06-17T04:51:21.526Z,19.55
2023-06-17T04:52:25.644Z,17.38
2023-06-17T04:53:28.900Z,15.82
2023-06-17T04:54:32.198Z,18.08
2023-06-17T04:55:37.384Z,28.90
2023-06-17T04:56:41.742Z,17.83
2023-06-17T04:57:44.162Z,20.15
2023-06-17T04:58:46.994Z,16.92
2023-06-17T04:59:51.221Z,25.42
2023-06-17T05:00:54.120Z,19.77
2023-06-17T05:02:00.045Z,19.98
2023-06-17T05:03:03.025Z,19.50
2023-06-17T05:04:06.626Z,16.45
2023-06-17T05:05:09.401Z,18.85
2023-06-17T05:06:11.985Z,19.30
2023-06-17T05:07:14.877Z,17.83
2023-06-17T05:08:18.848Z,22.20
2023-06-17T05:09:21.254Z,21.02
2023-06-17T05:10:23.793Z,17.25
2023-06-17T05:11:27.722Z,23.20
2023-06-17T05:12:30.096Z,19.95
2023-06-17T05:13:32.578Z,17.48
2023-06-17T05:14:35.729Z,20.88
2023-06-17T05:15:38.035Z,17.15
2023-06-17T05:16:40.461Z,20.92
2023-06-17T05:17:45.188Z,18.88
2023-06-17T05:18:47.830Z,20.33
2023-06-17T05:19:50.842Z,24.50
2023-06-17T05:20:53.957Z,21.80
2023-06-17T05:21:57.025Z,20.40
2023-06-17T05:23:02.533Z,23.65
2023-06-17T05:24:05.084Z,21.73
2023-06-17T05:25:07.770Z,19.13
2023-06-17T05:26:10.068Z,26.60
2023-06-17T05:27:12.531Z,17.05
2023-06-17T05:28:15.048Z,18.00
2023-06-17T05:29:17.405Z,17.75
2023-06-17T05:30:20.827Z,21.40
2023-06-17T05:31:25.544Z,24.15
2023-06-17T05:32:27.866Z,17.98
2023-06-17T05:33:32.902Z,18.77
2023-06-17T05:34:35.488Z,19.38
2023-06-17T05:35:37.685Z,19.85
2023-06-17T05:36:40.372Z,19.08
2023-06-17T05:37:42.753Z,18.95
2023-06-17T05:38:44.944Z,21.30
2023-06-17T05:39:47.346Z,27.75
2023-06-17T05:40:50.572Z,21.75
2023-06-17T05:41:52.769Z,19.65
2023-06-17T05:42:55.672Z,20.52
2023-06-17T05:43:58.169Z,20.17
2023-06-17T05:45:00.653Z,19.42
2023-06-17T05:46:04.699Z,17.40
2023-06-17T05:47:07.025Z,15.07
2023-06-17T05:48:09.303Z,18.77
2023-06-17T05:49:11.687Z,19.98
2023-06-17T05:50:14.442Z,22.05
2023-06-17T05:51:18.306Z,18.75
2023-06-17T05:52:21.554Z,17.38
2023-06-17T05:53:23.878Z,24.42
2023-06-17T05:54:27.318Z,23.92
2023-06-17T05:55:29.967Z,17.10
2023-06-17T05:56:32.234Z,16.27
2023-06-17T05:57:34.778Z,18.58
2023-06-17T05:58:37.402Z,19.17
2023-06-17T05:59:43.724Z,17.88
2023-06-17T06:00:47.443Z,22.15
2023-06-17T06:01:49.719Z,20.70
2023-06-17T06:02:52.492Z,19.92
2023-06-17T06:03:54.914Z,19.15
2023-06-17T06:04:57.153Z,20.58
2023-06-17T06:05:59.358Z,16.85
2023-06-17T06:07:01.565Z,13.27
2023-06-17T06:08:03.892Z,18.55
2023-06-17T06:09:06.124Z,20.10
2023-06-17T06:10:09.139Z,18.77
2023-06-17T06:11:15.935Z,16.30
2023-06-17T06:12:18.318Z,19.33
2023-06-17T06:13:20.543Z,20.55
2023-06-17T06:14:22.768Z,18.40
2023-06-17T06:15:26.982Z,15.60
2023-06-17T06:16:29.387Z,16.98
2023-06-17T06:17:31.898Z,17.75
2023-06-17T06:18:34.363Z,14.45
2023-06-17T06:19:36.611Z,17.88
2023-06-17T06:20:38.850Z,16.42
2023-06-17T06:21:42.421Z,15.77
2023-06-17T06:22:44.974Z,16.52
2023-06-17T06:23:47.863Z,17.63
2023-06-17T06:24:50.445Z,16.48
2023-06-17T06:25:52.810Z,13.63
2023-06-17T06:26:55.145Z,15.57
2023-06-17T06:27:59.615Z,16.60
2023-06-17T06:29:03.489Z,16.48
2023-06-17T06:30:06.447Z,22.52
2023-06-17T06:31:13.158Z,19.00
2023-06-17T06:32:15.376Z,17.75
2023-06-17T06:33:18.374Z,13.25
2023-06-17T06:34:20.698Z,15.45
2023-06-17T06:35:22.935Z,17.90
2023-06-17T06:36:26.476Z,14.90
2023-06-17T06:37:28.742Z,19.63
2023-06-17T06:38:31.065Z,18.40
2023-06-17T06:39:35.448Z,13.95
2023-06-17T06:40:37.723Z,15.27
2023-06-17T06:41:40.055Z,15.98
2023-06-17T06:43:01.710Z,16.35
2023-06-17T06:44:14.629Z,17.55
2023-06-17T06:45:17.019Z,15.55
2023-06-17T06:46:20.704Z,16.90
2023-06-17T06:47:24.053Z,16.55
2023-06-17T06:48:27.676Z,16.27
2023-06-17T06:49:29.870Z,17.50
2023-06-17T06:50:32.051Z,25.65
2023-06-17T06:51:34.396Z,13.40
2023-06-17T06:52:36.676Z,17.67
2023-06-17T06:53:39.234Z,16.00
2023-06-17T06:54:41.464Z,18.98
2023-06-17T06:55:44.161Z,18.85
2023-06-17T06:56:46.447Z,18.48
2023-06-17T06:57:48.883Z,18.50
2023-06-17T06:58:51.171Z,19.08
2023-06-17T06:59:53.351Z,21.52
2023-06-17T07:00:56.470Z,18.10
2023-06-17T07:01:58.990Z,18.65
2023-06-17T07:03:01.408Z,17.85
2023-06-17T07:04:03.814Z,14.15
2023-06-17T07:05:06.459Z,18.95
2023-06-17T07:06:14.911Z,16.33
2023-06-17T07:07:17.500Z,16.50
2023-06-17T07:08:20.826Z,13.77
2023-06-17T07:09:24.021Z,12.98
2023-06-17T07:10:26.279Z,14.35
2023-06-17T07:11:29.221Z,18.83
2023-06-17T07:12:31.759Z,14.25
2023-06-17T07:13:33.980Z,14.45
2023-06-17T07:14:36.661Z,15.35
2023-06-17T07:15:39.033Z,19.23
2023-06-17T07:16:41.622Z,13.90
2023-06-17T07:17:43.980Z,12.63
2023-06-17T07:18:46.327Z,14.13
2023-06-17T07:19:48.543Z,15.32
2023-06-17T07:20:50.901Z,15.20
2023-06-17T07:21:54.865Z,17.15
2023-06-17T07:22:57.441Z,20.38
2023-06-17T07:23:59.743Z,17.02
2023-06-17T07:25:03.779Z,19.23
2023-06-17T07:26:07.528Z,18.33
2023-06-17T07:27:09.933Z,14.15
2023-06-17T07:28:14.029Z,18.23
2023-06-17T07:29:16.603Z,16.90
2023-06-17T07:30:19.181Z,16.27
2023-06-17T07:31:23.917Z,15.73
2023-06-17T07:32:26.523Z,13.02
2023-06-17T07:33:28.870Z,14.85
2023-06-17T07:34:31.395Z,15.30
2023-06-17T07:35:34.106Z,13.95
2023-06-17T07:36:36.297Z,13.02
2023-06-17T07:37:38.569Z,13.43
2023-06-17T07:38:42.213Z,15.85
2023-06-17T07:39:47.459Z,13.52
2023-06-17T07:40:49.736Z,17.40
2023-06-17T07:41:52.002Z,18.13
2023-06-17T07:42:54.331Z,18.95
2023-06-17T07:43:56.605Z,17.80
2023-06-17T07:44:58.851Z,14.90
2023-06-17T07:46:01.111Z,14.48
2023-06-17T07:47:03.714Z,18.23
2023-06-17T07:48:06.171Z,16.77
2023-06-17T07:49:08.478Z,17.75
2023-06-17T07:50:11.340Z,16.05
2023-06-17T07:51:13.597Z,15.23
2023-06-17T07:52:16.063Z,16.42
2023-06-17T07:53:18.251Z,14.65
2023-06-17T07:54:20.427Z,13.13
2023-06-17T07:55:22.625Z,17.92
2023-06-17T07:56:26.364Z,12.35
2023-06-17T07:57:28.625Z,15.90
2023-06-17T07:58:30.782Z,16.13
2023-06-17T07:59:33.069Z,16.67
2023-06-17T08:00:35.327Z,16.20
2023-06-17T08:01:38.299Z,13.20
2023-06-17T08:02:44.377Z,15.40
2023-06-17T08:03:46.837Z,16.83
2023-06-17T08:04:49.753Z,17.60
2023-06-17T08:05:51.898Z,16.85
2023-06-17T08:06:54.118Z,18.70
2023-06-17T08:07:56.556Z,19.40
2023-06-17T08:08:58.730Z,15.05
2023-06-17T08:10:01.143Z,14.65
2023-06-17T08:11:03.362Z,16.48
2023-06-17T08:12:06.400Z,16.48
2023-06-17T08:13:09.042Z,16.58
2023-06-17T08:14:11.214Z,14.35
2023-06-17T08:15:13.390Z,14.95
2023-06-17T08:16:15.719Z,15.88
2023-06-17T08:17:17.987Z,14.18
2023-06-17T08:18:20.235Z,14.27
2023-06-17T08:19:22.683Z,14.75
2023-06-17T08:20:25.279Z,13.45
2023-06-17T08:21:27.725Z,19.83
2023-06-17T08:22:30.121Z,12.13
2023-06-17T08:23:32.343Z,17.15
2023-06-17T08:24:34.791Z,14.38
2023-06-17T08:25:37.059Z,15.18
2023-06-17T08:26:39.227Z,15.65
2023-06-17T08:27:45.380Z,16.73
2023-06-17T08:28:47.634Z,13.02
2023-06-17T08:29:49.823Z,21.05
2023-06-17T08:30:53.155Z,16.27
2023-06-17T08:31:55.554Z,13.43
2023-06-17T08:32:58.690Z,15.65
2023-06-17T08:34:00.915Z,15.35
2023-06-17T08:35:07.311Z,14.57
2023-06-17T08:36:09.528Z,14.75
2023-06-17T08:37:11.727Z,16.08
2023-06-17T08:38:13.895Z,12.00
2023-06-17T08:39:16.377Z,12.50
2023-06-17T08:40:20.596Z,15.70
2023-06-17T08:41:23.377Z,13.52
2023-06-17T08:42:28.154Z,18.13
2023-06-17T08:43:32.111Z,11.73
2023-06-17T08:44:34.826Z,10.00
2023-06-17T08:45:40.256Z,10.60
2023-06-17T08:46:47.615Z,11.38
2023-06-17T08:47:50.102Z,10.55
2023-06-17T08:48:53.659Z,11.50
2023-06-17T08:49:59.214Z,11.27
2023-06-17T08:51:01.524Z,9.75
2023-06-17T08:52:04.808Z,10.48
2023-06-17T08:53:07.106Z,12.73
2023-06-17T08:54:10.935Z,9.77
2023-06-17T08:55:14.154Z,14.82
2023-06-17T08:56:16.350Z,9.77
2023-06-17T08:57:19.025Z,12.52
2023-06-17T08:58:21.476Z,12.18
2023-06-17T08:59:23.833Z,14.18
2023-06-17T09:00:26.061Z,13.15
2023-06-17T09:01:28.786Z,9.57
2023-06-17T09:02:33.440Z,13.07
2023-06-17T09:03:39.162Z,12.80
2023-06-17T09:04:41.900Z,14.05
2023-06-17T09:05:44.241Z,12.10
2023-06-17T09:06:46.464Z,10.48
2023-06-17T09:07:48.660Z,12.18
2023-06-17T09:08:52.597Z,9.32
2023-06-17T09:09:57.889Z,11.07
2023-06-17T09:11:06.465Z,12.27
2023-06-17T09:12:09.700Z,9.60
2023-06-17T09:13:12.188Z,12.30
2023-06-17T09:14:23.096Z,11.23
2023-06-17T09:15:46.773Z,12.57
2023-06-17T09:16:50.781Z,12.63
2023-06-17T09:17:54.601Z,10.07
2023-06-17T09:19:01.808Z,9.40
2023-06-17T09:20:15.427Z,11.15
2023-06-17T09:21:18.208Z,9.10
2023-06-17T09:22:21.489Z,10.88
2023-06-17T09:23:26.877Z,8.07
2023-06-17T09:24:31.065Z,12.05
2023-06-17T09:25:36.288Z,11.27
2023-06-17T09:26:43.167Z,9.68
2023-06-17T09:29:02.853Z,8.18
2023-06-17T09:30:10.526Z,10.88
2023-06-17T09:31:13.231Z,9.50
2023-06-17T09:32:15.489Z,9.80
2023-06-17T09:33:22.304Z,9.85
2023-06-17T09:34:26.454Z,9.80
2023-06-17T09:35:28.642Z,8.32
2023-06-17T09:36:31.315Z,10.93
2023-06-17T09:37:33.558Z,7.82
2023-06-17T09:38:39.591Z,10.00
2023-06-17T09:39:46.373Z,10.15
2023-06-17T09:40:49.730Z,9.68
2023-06-17T09:41:55.875Z,9.95
2023-06-17T09:43:09.421Z,9.52
2023-06-17T09:44:23.535Z,8.82
2023-06-17T09:45:26.292Z,9.35
2023-06-17T09:46:36.341Z,9.82
2023-06-17T09:47:39.131Z,10.45
2023-06-17T09:48:41.510Z,6.30
2023-06-17T09:49:44.930Z,8.38
2023-06-17T09:50:48.255Z,10.93
2023-06-17T09:51:52.852Z,7.15
2023-06-17T09:52:56.883Z,9.73
2023-06-17T09:54:00.367Z,6.95
2023-06-17T09:55:06.802Z,8.90
2023-06-17T09:56:13.612Z,8.20
2023-06-17T09:57:17.983Z,11.77
2023-06-17T09:58:21.961Z,9.02
2023-06-17T09:59:25.726Z,8.93
2023-06-17T10:00:28.602Z,12.15
2023-06-17T10:01:32.000Z,11.23
2023-06-17T10:02:34.411Z,11.10
2023-06-17T10:03:38.693Z,10.70
2023-06-17T10:04:41.205Z,11.45
2023-06-17T10:05:43.579Z,10.52
2023-06-17T10:06:50.023Z,8.20
2023-06-17T10:07:54.064Z,10.95
2023-06-17T10:08:58.891Z,10.23
2023-06-17T10:10:03.273Z,12.18
2023-06-17T10:11:05.793Z,6.45
2023-06-17T10:12:09.991Z,8.60
2023-06-17T10:13:13.763Z,8.23
2023-06-17T10:14:29.835Z,9.65
2023-06-17T10:15:33.386Z,9.13
2023-06-17T10:16:40.264Z,9.40
2023-06-17T10:17:46.310Z,11.63
2023-06-17T10:18:51.413Z,10.32
2023-06-17T10:19:55.550Z,11.13
2023-06-17T10:21:01.037Z,11.43
2023-06-17T10:22:09.132Z,8.45
2023-06-17T10:23:12.581Z,7.68
2023-06-17T10:24:16.828Z,10.13
2023-06-17T10:25:19.259Z,7.93
2023-06-17T10:26:22.396Z,7.60
2023-06-17T10:27:24.743Z,8.88
2023-06-17T10:28:43.816Z,9.88
2023-06-17T10:29:49.572Z,8.63
2023-06-17T10:30:53.246Z,7.45
2023-06-17T10:31:55.588Z,11.13
2023-06-17T10:33:00.281Z,10.45
2023-06-17T10:34:03.292Z,7.25
2023-06-17T10:35:13.566Z,9.82
2023-06-17T10:36:15.926Z,7.85
2023-06-17T10:37:27.657Z,7.45
2023-06-17T10:38:30.660Z,9.80
2023-06-17T10:39:32.962Z,7.40
2023-06-17T10:40:58.231Z,7.00
2023-06-17T10:42:01.142Z,8.45
2023-06-17T10:43:03.635Z,18.83
2023-06-17T10:44:31.519Z,9.45
2023-06-17T10:45:48.522Z,9.43
2023-06-17T10:46:54.486Z,6.63
2023-06-17T10:48:18.618Z,10.25
2023-06-17T10:49:21.197Z,5.18
2023-06-17T10:50:23.726Z,8.50
2023-06-17T10:51:36.260Z,7.10
2023-06-17T10:52:43.976Z,9.20
2023-06-17T10:53:52.814Z,8.23
2023-06-17T10:54:56.623Z,9.05
2023-06-17T10:56:01.112Z,6.55
2023-06-17T10:57:05.578Z,9.82
2023-06-17T10:58:08.437Z,8.93
2023-06-17T10:59:10.617Z,9.20
2023-06-17T11:00:13.330Z,6.35
2023-06-17T11:01:15.816Z,9.27
2023-06-17T11:02:18.010Z,6.85
2023-06-17T11:03:20.535Z,12.80
2023-06-17T11:04:23.056Z,9.88
2023-06-17T11:05:25.437Z,7.97
2023-06-17T11:06:33.085Z,6.93
2023-06-17T11:07:35.479Z,6.68
2023-06-17T11:08:38.571Z,8.23
2023-06-17T11:09:40.841Z,7.25
2023-06-17T11:10:43.101Z,8.70
2023-06-17T11:11:45.305Z,10.75
2023-06-17T11:12:49.020Z,10.60
2023-06-17T11:13:53.083Z,10.02
2023-06-17T11:14:55.962Z,8.90
2023-06-17T11:15:58.449Z,7.68
2023-06-17T11:17:01.080Z,9.45
2023-06-17T11:18:03.996Z,9.73
2023-06-17T11:19:07.182Z,6.53
2023-06-17T11:20:12.173Z,9.55
2023-06-17T11:21:16.269Z,8.60
2023-06-17T11:22:18.454Z,8.10
2023-06-17T11:23:21.458Z,6.47
2023-06-17T11:24:25.096Z,5.78
2023-06-17T11:25:43.672Z,8.57
2023-06-17T11:26:46.765Z,7.28
2023-06-17T11:27:49.156Z,6.72
2023-06-17T11:28:51.702Z,8.13
2023-06-17T11:29:53.996Z,9.52
2023-06-17T11:30:57.354Z,7.40
2023-06-17T11:32:01.136Z,9.90
2023-06-17T11:33:03.570Z,6.88
2023-06-17T11:34:07.898Z,8.32
2023-06-17T11:35:10.470Z,8.10
2023-06-17T11:36:15.216Z,8.85
2023-06-17T11:37:17.925Z,9.13
2023-06-17T11:38:21.935Z,10.38
2023-06-17T11:39:25.759Z,18.25
2023-06-17T11:40:28.406Z,12.30
2023-06-17T11:41:31.276Z,9.25
2023-06-17T11:42:33.910Z,6.57
2023-06-17T11:43:36.833Z,10.98
2023-06-17T11:44:39.267Z,7.57
2023-06-17T11:45:42.037Z,9.65
2023-06-17T11:46:44.571Z,5.35
2023-06-17T11:47:46.938Z,6.32
2023-06-17T11:48:49.429Z,6.95
2023-06-17T11:49:51.874Z,6.60
2023-06-17T11:50:55.793Z,8.57
2023-06-17T11:52:03.041Z,8.50
2023-06-17T11:53:05.238Z,9.73
2023-06-17T11:54:08.054Z,6.00
2023-06-17T11:55:15.432Z,8.45
2023-06-17T11:56:21.353Z,7.40
2023-06-17T11:57:25.070Z,11.52
2023-06-17T11:58:27.335Z,10.02
2023-06-17T11:59:33.036Z,7.93
2023-06-17T12:00:38.398Z,6.13
2023-06-17T12:01:41.575Z,7.75
2023-06-17T12:02:44.066Z,8.43
2023-06-17T12:03:49.223Z,7.00
2023-06-17T12:04:51.418Z,6.65
2023-06-17T12:05:53.624Z,8.77
2023-06-17T12:06:56.202Z,7.68
2023-06-17T12:08:02.036Z,7.95
2023-06-17T12:09:05.187Z,8.70
2023-06-17T12:10:08.879Z,6.57
2023-06-17T12:11:26.788Z,9.50
2023-06-17T12:12:33.493Z,5.78
2023-06-17T12:13:40.456Z,6.72
2023-06-17T12:14:42.746Z,9.98
2023-06-17T12:15:45.936Z,8.23
2023-06-17T12:16:48.742Z,8.38
2023-06-17T12:17:50.949Z,7.88
2023-06-17T12:18:53.611Z,6.05
2023-06-17T12:20:01.952Z,8.38
2023-06-17T12:21:11.395Z,7.00
2023-06-17T12:22:13.960Z,7.63
2023-06-17T12:23:16.261Z,7.25
2023-06-17T12:24:20.508Z,7.13
2023-06-17T12:25:24.133Z,8.27
2023-06-17T12:26:27.951Z,8.40
2023-06-17T12:27:31.143Z,8.52
2023-06-17T12:28:33.744Z,7.57
2023-06-17T12:29:35.942Z,11.63
2023-06-17T12:30:40.321Z,9.90
2023-06-17T12:31:44.010Z,11.13
2023-06-17T12:32:46.794Z,8.98
2023-06-17T12:33:49.587Z,11.63
2023-06-17T12:34:52.388Z,8.30
2023-06-17T12:35:54.635Z,7.13
2023-06-17T12:36:56.809Z,7.55
2023-06-17T12:37:59.019Z,7.40
2023-06-17T12:39:02.636Z,11.07
2023-06-17T12:40:05.349Z,6.50
2023-06-17T12:41:08.287Z,7.95
2023-06-17T12:42:10.468Z,7.85
2023-06-17T12:43:12.757Z,7.90
2023-06-17T12:44:15.060Z,5.28
2023-06-17T12:45:17.337Z,5.18
2023-06-17T12:46:19.778Z,9.23
2023-06-17T12:47:23.140Z,7.15
2023-06-17T12:48:29.855Z,7.15
2023-06-17T12:49:32.730Z,8.55
2023-06-17T12:50:34.971Z,6.53
2023-06-17T12:51:37.318Z,7.43
2023-06-17T12:52:39.493Z,9.15
2023-06-17T12:53:41.675Z,8.20
2023-06-17T12:54:44.678Z,10.77
2023-06-17T12:55:46.858Z,7.43
2023-06-17T12:56:49.014Z,7.47
2023-06-17T12:57:51.191Z,8.68
2023-06-17T12:58:53.369Z,9.35
2023-06-17T12:59:55.777Z,7.95
2023-06-17T13:00:58.018Z,7.45
2023-06-17T13:02:00.766Z,7.35
2023-06-17T13:03:03.654Z,11.38
2023-06-17T13:04:06.017Z,10.60
2023-06-17T13:05:08.659Z,8.70
2023-06-17T13:06:11.009Z,11.98
2023-06-17T13:07:13.263Z,8.43
2023-06-17T13:08:15.936Z,8.45
2023-06-17T13:09:18.102Z,6.95
2023-06-17T13:10:20.677Z,7.45
2023-06-17T13:11:23.180Z,8.07
2023-06-17T13:12:25.832Z,8.40
2023-06-17T13:13:28.817Z,5.80
2023-06-17T13:14:31.133Z,7.82
2023-06-17T13:15:33.496Z,7.15
2023-06-17T13:16:36.290Z,6.03
2023-06-17T13:17:38.633Z,7.60
2023-06-17T13:18:41.637Z,7.85
2023-06-17T13:19:43.880Z,6.82
2023-06-17T13:20:46.069Z,7.95
2023-06-17T13:21:48.252Z,5.65
2023-06-17T13:22:50.890Z,6.25
2023-06-17T13:23:53.217Z,6.68
2023-06-17T13:24:55.474Z,7.00
2023-06-17T13:25:58.191Z,8.27
2023-06-17T13:27:00.657Z,7.22
2023-06-17T13:28:02.989Z,8.65
2023-06-17T13:29:06.427Z,8.43
2023-06-17T13:30:09.130Z,8.55
2023-06-17T13:31:11.570Z,10.15
2023-06-17T13:32:13.828Z,7.18
2023-06-17T13:33:16.075Z,11.02
2023-06-17T13:34:19.254Z,9.73
2023-06-17T13:35:22.481Z,10.02
2023-06-17T13:36:26.273Z,6.97
2023-06-17T13:37:29.857Z,7.45
2023-06-17T13:38:32.161Z,8.48
2023-06-17T13:39:35.039Z,9.93
2023-06-17T13:40:37.471Z,7.20
2023-06-17T13:41:39.762Z,5.63
2023-06-17T13:42:42.364Z,10.32
2023-06-17T13:43:44.899Z,7.07
2023-06-17T13:44:47.110Z,8.00
2023-06-17T13:45:49.329Z,9.65
2023-06-17T13:46:52.169Z,6.88
2023-06-17T13:47:54.374Z,13.68
2023-06-17T13:48:56.782Z,9.55